sensor_id;sensor_type;location;lat;lon;timestamp;P1;durP1;ratioP1;P2;durP2;ratioP2
69334;SDS011;56477;52.742;15.242;2022-10-17T00:01:15;22.63;;;12.43;;
69334;SDS011;56477;52.742;15.242;2022-10-17T00:03:41;22.27;;;12.45;;
69334;SDS011;56477;52.742;15.242;2022-10-17T00:06:12;22.23;;;13.70;;
69334;SDS011;56477;52.742;15.242;2022-10-17T00:08:39;22.58;;;13.43;;
69334;SDS011;56477;52.742;15.242;2022-10-17T00:11:07;23.90;;;14.32;;
69334;SDS011;56477;52.742;15.242;2022-10-17T00:13:38;23.20;;;13.53;;
69334;SDS011;56477;52.742;15.242;2022-10-17T00:16:04;22.58;;;13.07;;
69334;SDS011;56477;52.742;15.242;2022-10-17T00:18:31;24.08;;;13.77;;
69334;SDS011;56477;52.742;15.242;2022-10-17T00:20:57;25.63;;;14.02;;
69334;SDS011;56477;52.742;15.242;2022-10-17T00:23:23;23.43;;;13.17;;
69334;SDS011;56477;52.742;15.242;2022-10-17T00:25:58;28.05;;;14.98;;
69334;SDS011;56477;52.742;15.242;2022-10-17T00:28:26;28.27;;;16.05;;
69334;SDS011;56477;52.742;15.242;2022-10-17T00:30:59;24.17;;;13.32;;
69334;SDS011;56477;52.742;15.242;2022-10-17T00:33:28;25.63;;;15.10;;
69334;SDS011;56477;52.742;15.242;2022-10-17T00:36:01;26.20;;;14.83;;
69334;SDS011;56477;52.742;15.242;2022-10-17T00:38:46;23.88;;;13.25;;
69334;SDS011;56477;52.742;15.242;2022-10-17T00:41:16;24.00;;;14.23;;
69334;SDS011;56477;52.742;15.242;2022-10-17T00:43:50;27.33;;;14.07;;
69334;SDS011;56477;52.742;15.242;2022-10-17T00:46:31;28.30;;;15.25;;
69334;SDS011;56477;52.742;15.242;2022-10-17T00:49:02;27.80;;;14.23;;
69334;SDS011;56477;52.742;15.242;2022-10-17T00:51:42;23.10;;;12.57;;
69334;SDS011;56477;52.742;15.242;2022-10-17T00:54:21;28.30;;;15.52;;
69334;SDS011;56477;52.742;15.242;2022-10-17T00:56:50;25.73;;;15.07;;
69334;SDS011;56477;52.742;15.242;2022-10-17T00:59:17;27.80;;;16.40;;
69334;SDS011;56477;52.742;15.242;2022-10-17T01:02:08;27.53;;;15.63;;
69334;SDS011;56477;52.742;15.242;2022-10-17T01:04:38;27.27;;;14.82;;
69334;SDS011;56477;52.742;15.242;2022-10-17T01:07:06;30.05;;;15.45;;
69334;SDS011;56477;52.742;15.242;2022-10-17T01:09:33;24.55;;;14.60;;
69334;SDS011;56477;52.742;15.242;2022-10-17T01:12:17;27.02;;;14.77;;
69334;SDS011;56477;52.742;15.242;2022-10-17T01:17:48;26.45;;;14.95;;
69334;SDS011;56477;52.742;15.242;2022-10-17T01:31:15;23.48;;;14.40;;
69334;SDS011;56477;52.742;15.242;2022-10-17T01:38:50;14.23;;;9.70;;
69334;SDS011;56477;52.742;15.242;2022-10-17T01:44:18;14.95;;;9.48;;
69334;SDS011;56477;52.742;15.242;2022-10-17T01:46:49;16.48;;;9.30;;
69334;SDS011;56477;52.742;15.242;2022-10-17T01:49:17;15.30;;;8.88;;
69334;SDS011;56477;52.742;15.242;2022-10-17T01:51:50;16.63;;;9.23;;
69334;SDS011;56477;52.742;15.242;2022-10-17T01:54:25;18.08;;;8.77;;
69334;SDS011;56477;52.742;15.242;2022-10-17T01:56:57;15.10;;;8.93;;
69334;SDS011;56477;52.742;15.242;2022-10-17T01:59:29;14.75;;;9.45;;
69334;SDS011;56477;52.742;15.242;2022-10-17T02:02:02;17.45;;;8.63;;
69334;SDS011;56477;52.742;15.242;2022-10-17T02:04:30;14.03;;;7.83;;
69334;SDS011;56477;52.742;15.242;2022-10-17T02:06:56;12.63;;;8.27;;
69334;SDS011;56477;52.742;15.242;2022-10-17T02:09:23;13.10;;;7.55;;
69334;SDS011;56477;52.742;15.242;2022-10-17T02:28:37;9.67;;;5.70;;
69334;SDS011;56477;52.742;15.242;2022-10-17T02:31:14;12.05;;;6.05;;
69334;SDS011;56477;52.742;15.242;2022-10-17T02:33:46;10.88;;;6.43;;
69334;SDS011;56477;52.742;15.242;2022-10-17T02:36:18;9.52;;;6.25;;
69334;SDS011;56477;52.742;15.242;2022-10-17T02:38:47;9.40;;;5.65;;
69334;SDS011;56477;52.742;15.242;2022-10-17T02:41:17;10.07;;;6.13;;
69334;SDS011;56477;52.742;15.242;2022-10-17T02:43:45;9.10;;;6.00;;
69334;SDS011;56477;52.742;15.242;2022-10-17T02:46:13;9.02;;;5.78;;
69334;SDS011;56477;52.742;15.242;2022-10-17T02:49:11;9.98;;;5.85;;
69334;SDS011;56477;52.742;15.242;2022-10-17T02:54:42;9.80;;;5.87;;
69334;SDS011;56477;52.742;15.242;2022-10-17T02:57:13;11.07;;;6.25;;
69334;SDS011;56477;52.742;15.242;2022-10-17T02:59:41;9.52;;;6.18;;
69334;SDS011;56477;52.742;15.242;2022-10-17T03:02:09;11.88;;;6.45;;
69334;SDS011;56477;52.742;15.242;2022-10-17T03:04:36;12.55;;;6.85;;
69334;SDS011;56477;52.742;15.242;2022-10-17T03:07:03;10.20;;;6.70;;
69334;SDS011;56477;52.742;15.242;2022-10-17T03:09:28;11.07;;;7.15;;
69334;SDS011;56477;52.742;15.242;2022-10-17T03:11:54;11.35;;;7.40;;
69334;SDS011;56477;52.742;15.242;2022-10-17T03:14:20;16.23;;;8.10;;
69334;SDS011;56477;52.742;15.242;2022-10-17T03:16:46;13.87;;;7.13;;
69334;SDS011;56477;52.742;15.242;2022-10-17T03:19:12;14.55;;;8.57;;
69334;SDS011;56477;52.742;15.242;2022-10-17T03:21:38;15.40;;;9.20;;
69334;SDS011;56477;52.742;15.242;2022-10-17T03:24:04;15.57;;;8.00;;
69334;SDS011;56477;52.742;15.242;2022-10-17T03:26:30;17.50;;;8.67;;
69334;SDS011;56477;52.742;15.242;2022-10-17T03:28:56;14.85;;;8.80;;
69334;SDS011;56477;52.742;15.242;2022-10-17T03:31:22;12.23;;;8.18;;
69334;SDS011;56477;52.742;15.242;2022-10-17T03:33:48;15.30;;;9.27;;
69334;SDS011;56477;52.742;15.242;2022-10-17T03:36:16;20.48;;;10.02;;
69334;SDS011;56477;52.742;15.242;2022-10-17T03:38:43;19.90;;;10.20;;
69334;SDS011;56477;52.742;15.242;2022-10-17T03:41:10;19.33;;;9.65;;
69334;SDS011;56477;52.742;15.242;2022-10-17T03:43:36;17.98;;;9.77;;
69334;SDS011;56477;52.742;15.242;2022-10-17T03:46:02;16.67;;;9.40;;
69334;SDS011;56477;52.742;15.242;2022-10-17T03:48:28;14.48;;;9.50;;
69334;SDS011;56477;52.742;15.242;2022-10-17T03:50:59;15.68;;;9.60;;
69334;SDS011;56477;52.742;15.242;2022-10-17T03:53:32;17.73;;;10.35;;
69334;SDS011;56477;52.742;15.242;2022-10-17T03:56:08;14.77;;;9.90;;
69334;SDS011;56477;52.742;15.242;2022-10-17T03:58:39;14.73;;;9.17;;
69334;SDS011;56477;52.742;15.242;2022-10-17T04:01:06;15.10;;;9.20;;
69334;SDS011;56477;52.742;15.242;2022-10-17T04:03:32;18.15;;;9.88;;
69334;SDS011;56477;52.742;15.242;2022-10-17T04:05:59;16.80;;;10.35;;
69334;SDS011;56477;52.742;15.242;2022-10-17T04:08:25;14.77;;;8.88;;
69334;SDS011;56477;52.742;15.242;2022-10-17T04:10:52;16.57;;;9.13;;
69334;SDS011;56477;52.742;15.242;2022-10-17T04:13:23;14.50;;;9.60;;
69334;SDS011;56477;52.742;15.242;2022-10-17T04:15:55;17.80;;;9.80;;
69334;SDS011;56477;52.742;15.242;2022-10-17T04:18:22;17.88;;;9.50;;
69334;SDS011;56477;52.742;15.242;2022-10-17T04:20:48;16.27;;;9.73;;
69334;SDS011;56477;52.742;15.242;2022-10-17T04:23:14;15.00;;;9.60;;
69334;SDS011;56477;52.742;15.242;2022-10-17T04:25:40;16.15;;;10.68;;
69334;SDS011;56477;52.742;15.242;2022-10-17T04:28:06;16.20;;;10.88;;
69334;SDS011;56477;52.742;15.242;2022-10-17T04:30:32;19.00;;;11.13;;
69334;SDS011;56477;52.742;15.242;2022-10-17T04:32:58;21.33;;;11.18;;
69334;SDS011;56477;52.742;15.242;2022-10-17T04:35:24;18.38;;;11.05;;
69334;SDS011;56477;52.742;15.242;2022-10-17T04:37:50;15.77;;;10.07;;
69334;SDS011;56477;52.742;15.242;2022-10-17T04:40:16;18.45;;;11.88;;
69334;SDS011;56477;52.742;15.242;2022-10-17T04:42:42;18.10;;;12.23;;
69334;SDS011;56477;52.742;15.242;2022-10-17T04:45:08;21.02;;;11.65;;
69334;SDS011;56477;52.742;15.242;2022-10-17T04:47:34;18.08;;;11.70;;
69334;SDS011;56477;52.742;15.242;2022-10-17T04:50:00;17.03;;;11.73;;
69334;SDS011;56477;52.742;15.242;2022-10-17T04:52:27;16.23;;;10.15;;
69334;SDS011;56477;52.742;15.242;2022-10-17T04:54:53;15.73;;;10.40;;
69334;SDS011;56477;52.742;15.242;2022-10-17T04:57:19;16.70;;;10.65;;
69334;SDS011;56477;52.742;15.242;2022-10-17T04:59:45;19.30;;;10.43;;
69334;SDS011;56477;52.742;15.242;2022-10-17T05:02:11;16.45;;;10.40;;
69334;SDS011;56477;52.742;15.242;2022-10-17T05:04:37;17.63;;;10.40;;
69334;SDS011;56477;52.742;15.242;2022-10-17T05:07:03;17.30;;;10.38;;
69334;SDS011;56477;52.742;15.242;2022-10-17T05:09:29;17.60;;;10.60;;
69334;SDS011;56477;52.742;15.242;2022-10-17T05:11:55;19.73;;;11.35;;
69334;SDS011;56477;52.742;15.242;2022-10-17T05:14:21;19.08;;;11.32;;
69334;SDS011;56477;52.742;15.242;2022-10-17T05:16:47;18.45;;;10.90;;
69334;SDS011;56477;52.742;15.242;2022-10-17T05:19:13;17.58;;;10.57;;
69334;SDS011;56477;52.742;15.242;2022-10-17T05:21:39;20.63;;;11.17;;
69334;SDS011;56477;52.742;15.242;2022-10-17T05:24:05;19.90;;;11.05;;
69334;SDS011;56477;52.742;15.242;2022-10-17T05:26:35;18.48;;;10.82;;
69334;SDS011;56477;52.742;15.242;2022-10-17T05:29:02;18.33;;;11.88;;
69334;SDS011;56477;52.742;15.242;2022-10-17T05:31:28;19.00;;;11.37;;
69334;SDS011;56477;52.742;15.242;2022-10-17T05:33:58;19.38;;;11.95;;
69334;SDS011;56477;52.742;15.242;2022-10-17T05:36:25;21.58;;;11.75;;
69334;SDS011;56477;52.742;15.242;2022-10-17T05:38:52;21.02;;;12.75;;
69334;SDS011;56477;52.742;15.242;2022-10-17T05:41:18;20.03;;;12.20;;
69334;SDS011;56477;52.742;15.242;2022-10-17T05:43:45;21.05;;;13.15;;
69334;SDS011;56477;52.742;15.242;2022-10-17T05:46:10;23.27;;;14.18;;
69334;SDS011;56477;52.742;15.242;2022-10-17T05:48:37;21.90;;;13.15;;
69334;SDS011;56477;52.742;15.242;2022-10-17T05:51:04;25.90;;;14.77;;
69334;SDS011;56477;52.742;15.242;2022-10-17T05:53:33;26.35;;;14.40;;
69334;SDS011;56477;52.742;15.242;2022-10-17T05:56:01;25.10;;;14.43;;
69334;SDS011;56477;52.742;15.242;2022-10-17T05:58:30;28.48;;;15.30;;
69334;SDS011;56477;52.742;15.242;2022-10-17T06:01:01;24.63;;;15.48;;
69334;SDS011;56477;52.742;15.242;2022-10-17T06:03:30;29.77;;;15.17;;
69334;SDS011;56477;52.742;15.242;2022-10-17T06:06:01;31.38;;;16.65;;
69334;SDS011;56477;52.742;15.242;2022-10-17T06:08:31;33.00;;;16.67;;
69334;SDS011;56477;52.742;15.242;2022-10-17T06:10:57;33.92;;;17.00;;
69334;SDS011;56477;52.742;15.242;2022-10-17T06:13:23;30.48;;;16.40;;
69334;SDS011;56477;52.742;15.242;2022-10-17T06:15:49;28.80;;;15.87;;
69334;SDS011;56477;52.742;15.242;2022-10-17T06:18:15;29.38;;;15.07;;
69334;SDS011;56477;52.742;15.242;2022-10-17T06:20:40;35.75;;;15.77;;
69334;SDS011;56477;52.742;15.242;2022-10-17T06:23:06;32.97;;;15.90;;
69334;SDS011;56477;52.742;15.242;2022-10-17T06:25:33;28.92;;;15.65;;
69334;SDS011;56477;52.742;15.242;2022-10-17T06:27:59;37.15;;;16.85;;
69334;SDS011;56477;52.742;15.242;2022-10-17T06:30:24;39.83;;;15.97;;
69334;SDS011;56477;52.742;15.242;2022-10-17T06:32:51;35.60;;;15.80;;
69334;SDS011;56477;52.742;15.242;2022-10-17T06:35:17;32.28;;;14.60;;
69334;SDS011;56477;52.742;15.242;2022-10-17T06:37:44;34.55;;;14.98;;
69334;SDS011;56477;52.742;15.242;2022-10-17T06:40:10;32.25;;;14.98;;
69334;SDS011;56477;52.742;15.242;2022-10-17T06:42:37;37.23;;;14.77;;
69334;SDS011;56477;52.742;15.242;2022-10-17T06:45:03;27.67;;;13.77;;
69334;SDS011;56477;52.742;15.242;2022-10-17T06:47:30;35.45;;;15.52;;
69334;SDS011;56477;52.742;15.242;2022-10-17T06:49:56;32.22;;;14.73;;
69334;SDS011;56477;52.742;15.242;2022-10-17T06:52:22;40.57;;;14.37;;
69334;SDS011;56477;52.742;15.242;2022-10-17T06:54:48;31.95;;;15.50;;
69334;SDS011;56477;52.742;15.242;2022-10-17T06:57:16;34.72;;;16.40;;
69334;SDS011;56477;52.742;15.242;2022-10-17T06:59:42;33.70;;;16.20;;
69334;SDS011;56477;52.742;15.242;2022-10-17T07:02:09;31.23;;;15.43;;
69334;SDS011;56477;52.742;15.242;2022-10-17T07:04:35;31.85;;;15.20;;
69334;SDS011;56477;52.742;15.242;2022-10-17T07:07:01;32.08;;;16.35;;
69334;SDS011;56477;52.742;15.242;2022-10-17T07:09:28;30.88;;;15.98;;
69334;SDS011;56477;52.742;15.242;2022-10-17T07:11:55;32.95;;;14.88;;
69334;SDS011;56477;52.742;15.242;2022-10-17T07:14:20;29.53;;;16.00;;
69334;SDS011;56477;52.742;15.242;2022-10-17T07:16:46;28.63;;;15.20;;
69334;SDS011;56477;52.742;15.242;2022-10-17T07:19:12;25.58;;;14.25;;
69334;SDS011;56477;52.742;15.242;2022-10-17T07:21:38;29.90;;;14.60;;
69334;SDS011;56477;52.742;15.242;2022-10-17T07:24:04;27.50;;;15.63;;
69334;SDS011;56477;52.742;15.242;2022-10-17T07:26:32;30.63;;;15.70;;
69334;SDS011;56477;52.742;15.242;2022-10-17T07:28:58;29.80;;;15.68;;
69334;SDS011;56477;52.742;15.242;2022-10-17T07:31:24;31.25;;;16.55;;
69334;SDS011;56477;52.742;15.242;2022-10-17T07:33:50;32.97;;;16.23;;
69334;SDS011;56477;52.742;15.242;2022-10-17T07:36:16;30.55;;;16.45;;
69334;SDS011;56477;52.742;15.242;2022-10-17T07:38:43;27.98;;;16.20;;
69334;SDS011;56477;52.742;15.242;2022-10-17T07:41:10;30.58;;;16.50;;
69334;SDS011;56477;52.742;15.242;2022-10-17T07:43:36;29.70;;;16.40;;
69334;SDS011;56477;52.742;15.242;2022-10-17T07:46:03;30.02;;;16.17;;
69334;SDS011;56477;52.742;15.242;2022-10-17T07:48:30;30.55;;;17.10;;
69334;SDS011;56477;52.742;15.242;2022-10-17T07:50:57;32.47;;;17.52;;
69334;SDS011;56477;52.742;15.242;2022-10-17T07:53:25;27.55;;;16.00;;
69334;SDS011;56477;52.742;15.242;2022-10-17T07:55:51;29.23;;;15.90;;
69334;SDS011;56477;52.742;15.242;2022-10-17T07:58:17;27.63;;;15.43;;
69334;SDS011;56477;52.742;15.242;2022-10-17T08:00:43;23.70;;;14.38;;
69334;SDS011;56477;52.742;15.242;2022-10-17T08:03:12;23.67;;;13.32;;
69334;SDS011;56477;52.742;15.242;2022-10-17T08:05:38;21.80;;;13.80;;
69334;SDS011;56477;52.742;15.242;2022-10-17T08:08:04;20.60;;;13.05;;
69334;SDS011;56477;52.742;15.242;2022-10-17T08:10:30;21.63;;;12.90;;
69334;SDS011;56477;52.742;15.242;2022-10-17T08:12:56;20.95;;;13.10;;
69334;SDS011;56477;52.742;15.242;2022-10-17T08:15:23;20.23;;;12.57;;
69334;SDS011;56477;52.742;15.242;2022-10-17T08:17:50;20.30;;;12.33;;
69334;SDS011;56477;52.742;15.242;2022-10-17T08:20:16;19.30;;;12.82;;
69334;SDS011;56477;52.742;15.242;2022-10-17T08:22:42;20.23;;;13.00;;
69334;SDS011;56477;52.742;15.242;2022-10-17T08:25:15;18.80;;;12.65;;
69334;SDS011;56477;52.742;15.242;2022-10-17T08:27:41;19.37;;;12.67;;
69334;SDS011;56477;52.742;15.242;2022-10-17T08:30:07;18.75;;;12.95;;
69334;SDS011;56477;52.742;15.242;2022-10-17T08:32:33;21.27;;;13.15;;
69334;SDS011;56477;52.742;15.242;2022-10-17T08:34:59;20.50;;;12.20;;
69334;SDS011;56477;52.742;15.242;2022-10-17T08:37:25;19.65;;;12.73;;
69334;SDS011;56477;52.742;15.242;2022-10-17T08:39:51;19.87;;;12.13;;
69334;SDS011;56477;52.742;15.242;2022-10-17T08:45:26;16.73;;;11.68;;
69334;SDS011;56477;52.742;15.242;2022-10-17T08:47:58;18.35;;;12.23;;
69334;SDS011;56477;52.742;15.242;2022-10-17T08:50:34;19.10;;;11.97;;
69334;SDS011;56477;52.742;15.242;2022-10-17T08:55:49;19.48;;;12.75;;
69334;SDS011;56477;52.742;15.242;2022-10-17T08:58:17;19.83;;;12.52;;
69334;SDS011;56477;52.742;15.242;2022-10-17T09:00:51;21.05;;;12.68;;
69334;SDS011;56477;52.742;15.242;2022-10-17T09:03:31;18.17;;;12.97;;
69334;SDS011;56477;52.742;15.242;2022-10-17T09:06:42;20.52;;;12.65;;
69334;SDS011;56477;52.742;15.242;2022-10-17T09:08:58;18.63;;;12.32;;
69334;SDS011;56477;52.742;15.242;2022-10-17T09:12:11;17.30;;;11.95;;
69334;SDS011;56477;52.742;15.242;2022-10-17T09:20:21;22.53;;;12.97;;
69334;SDS011;56477;52.742;15.242;2022-10-17T09:25:21;21.58;;;13.43;;
69334;SDS011;56477;52.742;15.242;2022-10-17T09:28:24;21.75;;;13.40;;
69334;SDS011;56477;52.742;15.242;2022-10-17T09:30:46;22.65;;;13.05;;
69334;SDS011;56477;52.742;15.242;2022-10-17T09:33:24;21.43;;;13.87;;
69334;SDS011;56477;52.742;15.242;2022-10-17T09:38:44;23.33;;;12.82;;
69334;SDS011;56477;52.742;15.242;2022-10-17T09:41:20;18.45;;;12.80;;
69334;SDS011;56477;52.742;15.242;2022-10-17T09:43:56;16.58;;;11.45;;
69334;SDS011;56477;52.742;15.242;2022-10-17T09:48:53;18.60;;;11.53;;
69334;SDS011;56477;52.742;15.242;2022-10-17T09:51:26;14.88;;;10.13;;
69334;SDS011;56477;52.742;15.242;2022-10-17T09:54:02;16.88;;;11.55;;
69334;SDS011;56477;52.742;15.242;2022-10-17T09:56:30;16.50;;;10.65;;
69334;SDS011;56477;52.742;15.242;2022-10-17T09:59:19;15.35;;;9.90;;
69334;SDS011;56477;52.742;15.242;2022-10-17T10:02:32;14.80;;;9.63;;
69334;SDS011;56477;52.742;15.242;2022-10-17T10:04:54;17.77;;;9.43;;
69334;SDS011;56477;52.742;15.242;2022-10-17T10:07:21;15.82;;;10.05;;
69334;SDS011;56477;52.742;15.242;2022-10-17T10:09:47;15.80;;;10.20;;
69334;SDS011;56477;52.742;15.242;2022-10-17T10:12:28;16.17;;;9.57;;
69334;SDS011;56477;52.742;15.242;2022-10-17T10:14:57;14.73;;;10.13;;
69334;SDS011;56477;52.742;15.242;2022-10-17T10:17:39;14.48;;;9.23;;
69334;SDS011;56477;52.742;15.242;2022-10-17T10:20:26;14.80;;;9.93;;
69334;SDS011;56477;52.742;15.242;2022-10-17T10:23:13;17.25;;;11.52;;
69334;SDS011;56477;52.742;15.242;2022-10-17T10:28:16;23.47;;;13.27;;
69334;SDS011;56477;52.742;15.242;2022-10-17T10:30:45;58.53;;;28.65;;
69334;SDS011;56477;52.742;15.242;2022-10-17T10:33:14;18.67;;;10.95;;
69334;SDS011;56477;52.742;15.242;2022-10-17T10:35:40;43.75;;;28.80;;
69334;SDS011;56477;52.742;15.242;2022-10-17T10:38:09;23.17;;;14.37;;
69334;SDS011;56477;52.742;15.242;2022-10-17T10:40:44;18.77;;;9.43;;
69334;SDS011;56477;52.742;15.242;2022-10-17T10:43:20;16.80;;;10.52;;
69334;SDS011;56477;52.742;15.242;2022-10-17T10:45:47;13.23;;;7.90;;
69334;SDS011;56477;52.742;15.242;2022-10-17T10:53:33;12.73;;;8.53;;
69334;SDS011;56477;52.742;15.242;2022-10-17T10:56:09;14.13;;;8.73;;
69334;SDS011;56477;52.742;15.242;2022-10-17T11:01:37;14.30;;;8.00;;
69334;SDS011;56477;52.742;15.242;2022-10-17T11:06:42;12.33;;;8.53;;
69334;SDS011;56477;52.742;15.242;2022-10-17T11:11:48;10.85;;;7.82;;
69334;SDS011;56477;52.742;15.242;2022-10-17T11:15:07;12.95;;;8.15;;
69334;SDS011;56477;52.742;15.242;2022-10-17T11:17:31;12.48;;;8.43;;
69334;SDS011;56477;52.742;15.242;2022-10-17T11:20:09;11.77;;;8.00;;
69334;SDS011;56477;52.742;15.242;2022-10-17T11:22:51;13.57;;;9.60;;
69334;SDS011;56477;52.742;15.242;2022-10-17T11:25:35;16.08;;;9.60;;
69334;SDS011;56477;52.742;15.242;2022-10-17T11:28:03;14.77;;;8.88;;
69334;SDS011;56477;52.742;15.242;2022-10-17T11:30:50;13.10;;;8.70;;
69334;SDS011;56477;52.742;15.242;2022-10-17T11:33:41;11.18;;;6.88;;
69334;SDS011;56477;52.742;15.242;2022-10-17T11:36:11;14.13;;;8.40;;
69334;SDS011;56477;52.742;15.242;2022-10-17T11:41:11;18.55;;;10.43;;
69334;SDS011;56477;52.742;15.242;2022-10-17T11:46:21;15.07;;;7.22;;
69334;SDS011;56477;52.742;15.242;2022-10-17T11:48:54;10.52;;;7.57;;
69334;SDS011;56477;52.742;15.242;2022-10-17T11:51:23;10.43;;;6.90;;
69334;SDS011;56477;52.742;15.242;2022-10-17T11:53:53;18.33;;;8.60;;
69334;SDS011;56477;52.742;15.242;2022-10-17T11:56:33;9.85;;;6.65;;
69334;SDS011;56477;52.742;15.242;2022-10-17T12:01:55;9.68;;;6.40;;
69334;SDS011;56477;52.742;15.242;2022-10-17T12:12:29;15.70;;;6.93;;
69334;SDS011;56477;52.742;15.242;2022-10-17T12:15:38;8.73;;;6.47;;
69334;SDS011;56477;52.742;15.242;2022-10-17T12:20:28;8.70;;;6.40;;
69334;SDS011;56477;52.742;15.242;2022-10-17T12:23:25;9.35;;;6.95;;
69334;SDS011;56477;52.742;15.242;2022-10-17T12:25:55;9.43;;;6.67;;
69334;SDS011;56477;52.742;15.242;2022-10-17T12:30:53;9.20;;;6.20;;
69334;SDS011;56477;52.742;15.242;2022-10-17T12:33:36;8.48;;;6.50;;
69334;SDS011;56477;52.742;15.242;2022-10-17T12:44:49;9.07;;;6.22;;
69334;SDS011;56477;52.742;15.242;2022-10-17T12:52:27;11.15;;;6.25;;
69334;SDS011;56477;52.742;15.242;2022-10-17T12:55:24;10.70;;;6.38;;
69334;SDS011;56477;52.742;15.242;2022-10-17T13:03:13;9.32;;;7.18;;
69334;SDS011;56477;52.742;15.242;2022-10-17T13:05:47;10.15;;;6.82;;
69334;SDS011;56477;52.742;15.242;2022-10-17T13:08:23;9.90;;;7.03;;
69334;SDS011;56477;52.742;15.242;2022-10-17T13:10:53;11.13;;;7.20;;
69334;SDS011;56477;52.742;15.242;2022-10-17T13:13:21;10.90;;;7.45;;
69334;SDS011;56477;52.742;15.242;2022-10-17T13:15:51;10.73;;;7.27;;
69334;SDS011;56477;52.742;15.242;2022-10-17T13:18:20;11.13;;;7.63;;
69334;SDS011;56477;52.742;15.242;2022-10-17T13:20:58;10.32;;;6.57;;
69334;SDS011;56477;52.742;15.242;2022-10-17T13:23:31;9.15;;;7.00;;
69334;SDS011;56477;52.742;15.242;2022-10-17T13:26:13;10.65;;;7.03;;
69334;SDS011;56477;52.742;15.242;2022-10-17T13:31:31;11.07;;;6.97;;
69334;SDS011;56477;52.742;15.242;2022-10-17T13:34:04;11.02;;;6.80;;
69334;SDS011;56477;52.742;15.242;2022-10-17T13:36:31;10.82;;;7.30;;
69334;SDS011;56477;52.742;15.242;2022-10-17T13:39:04;10.18;;;7.15;;
69334;SDS011;56477;52.742;15.242;2022-10-17T13:41:32;10.75;;;6.97;;
69334;SDS011;56477;52.742;15.242;2022-10-17T13:43:59;11.53;;;7.50;;
69334;SDS011;56477;52.742;15.242;2022-10-17T13:46:32;10.90;;;6.90;;
69334;SDS011;56477;52.742;15.242;2022-10-17T13:48:59;11.23;;;7.50;;
69334;SDS011;56477;52.742;15.242;2022-10-17T13:51:35;12.90;;;7.60;;
69334;SDS011;56477;52.742;15.242;2022-10-17T13:54:09;12.45;;;7.00;;
69334;SDS011;56477;52.742;15.242;2022-10-17T13:56:42;10.90;;;7.18;;
69334;SDS011;56477;52.742;15.242;2022-10-17T13:59:17;10.33;;;7.13;;
69334;SDS011;56477;52.742;15.242;2022-10-17T14:01:48;11.83;;;7.53;;
69334;SDS011;56477;52.742;15.242;2022-10-17T14:04:16;11.25;;;7.22;;
69334;SDS011;56477;52.742;15.242;2022-10-17T14:06:42;12.38;;;8.00;;
69334;SDS011;56477;52.742;15.242;2022-10-17T14:11:54;10.80;;;7.33;;
69334;SDS011;56477;52.742;15.242;2022-10-17T14:14:23;12.27;;;7.40;;
69334;SDS011;56477;52.742;15.242;2022-10-17T14:16:50;12.93;;;7.45;;
69334;SDS011;56477;52.742;15.242;2022-10-17T14:21:52;12.02;;;7.43;;
69334;SDS011;56477;52.742;15.242;2022-10-17T14:27:23;12.03;;;7.30;;
69334;SDS011;56477;52.742;15.242;2022-10-17T14:29:50;11.60;;;7.05;;
69334;SDS011;56477;52.742;15.242;2022-10-17T14:32:17;10.63;;;6.60;;
69334;SDS011;56477;52.742;15.242;2022-10-17T14:34:45;11.70;;;7.47;;
69334;SDS011;56477;52.742;15.242;2022-10-17T14:37:23;10.70;;;7.20;;
69334;SDS011;56477;52.742;15.242;2022-10-17T14:39:52;10.85;;;6.82;;
69334;SDS011;56477;52.742;15.242;2022-10-17T14:42:20;11.02;;;7.25;;
69334;SDS011;56477;52.742;15.242;2022-10-17T14:44:50;16.60;;;7.57;;
69334;SDS011;56477;52.742;15.242;2022-10-17T14:47:19;13.33;;;8.50;;
69334;SDS011;56477;52.742;15.242;2022-10-17T14:49:50;10.63;;;7.10;;
69334;SDS011;56477;52.742;15.242;2022-10-17T14:52:29;11.90;;;8.15;;
69334;SDS011;56477;52.742;15.242;2022-10-17T14:54:57;12.13;;;7.78;;
69334;SDS011;56477;52.742;15.242;2022-10-17T14:59:59;14.10;;;7.75;;
69334;SDS011;56477;52.742;15.242;2022-10-17T15:02:26;13.73;;;7.53;;
69334;SDS011;56477;52.742;15.242;2022-10-17T15:04:53;13.38;;;8.18;;
69334;SDS011;56477;52.742;15.242;2022-10-17T15:07:20;14.10;;;7.25;;
69334;SDS011;56477;52.742;15.242;2022-10-17T15:09:47;12.02;;;7.57;;
69334;SDS011;56477;52.742;15.242;2022-10-17T15:12:15;13.13;;;7.70;;
69334;SDS011;56477;52.742;15.242;2022-10-17T15:14:43;19.80;;;8.75;;
69334;SDS011;56477;52.742;15.242;2022-10-17T15:17:14;14.65;;;8.45;;
69334;SDS011;56477;52.742;15.242;2022-10-17T15:19:49;11.77;;;7.70;;
69334;SDS011;56477;52.742;15.242;2022-10-17T15:22:15;16.30;;;8.20;;
69334;SDS011;56477;52.742;15.242;2022-10-17T15:24:42;16.25;;;9.10;;
69334;SDS011;56477;52.742;15.242;2022-10-17T15:27:17;11.32;;;7.40;;
69334;SDS011;56477;52.742;15.242;2022-10-17T15:29:46;13.65;;;8.18;;
69334;SDS011;56477;52.742;15.242;2022-10-17T15:32:12;12.40;;;7.78;;
69334;SDS011;56477;52.742;15.242;2022-10-17T15:34:38;15.43;;;8.80;;
69334;SDS011;56477;52.742;15.242;2022-10-17T15:37:05;16.03;;;8.73;;
69334;SDS011;56477;52.742;15.242;2022-10-17T15:39:33;16.20;;;9.10;;
69334;SDS011;56477;52.742;15.242;2022-10-17T15:41:58;17.60;;;8.75;;
69334;SDS011;56477;52.742;15.242;2022-10-17T15:44:24;17.98;;;9.10;;
69334;SDS011;56477;52.742;15.242;2022-10-17T15:46:50;16.83;;;9.30;;
69334;SDS011;56477;52.742;15.242;2022-10-17T15:49:17;15.52;;;9.15;;
69334;SDS011;56477;52.742;15.242;2022-10-17T15:51:44;14.70;;;8.30;;
69334;SDS011;56477;52.742;15.242;2022-10-17T15:54:10;14.65;;;8.45;;
69334;SDS011;56477;52.742;15.242;2022-10-17T15:56:40;14.00;;;9.17;;
69334;SDS011;56477;52.742;15.242;2022-10-17T15:59:10;13.80;;;8.82;;
69334;SDS011;56477;52.742;15.242;2022-10-17T16:01:42;15.55;;;8.95;;
69334;SDS011;56477;52.742;15.242;2022-10-17T16:04:10;14.30;;;8.43;;
69334;SDS011;56477;52.742;15.242;2022-10-17T16:06:39;14.82;;;8.93;;
69334;SDS011;56477;52.742;15.242;2022-10-17T16:09:05;14.33;;;8.13;;
69334;SDS011;56477;52.742;15.242;2022-10-17T16:14:12;14.07;;;8.50;;
69334;SDS011;56477;52.742;15.242;2022-10-17T16:16:39;15.30;;;8.90;;
69334;SDS011;56477;52.742;15.242;2022-10-17T16:19:06;16.27;;;9.30;;
69334;SDS011;56477;52.742;15.242;2022-10-17T16:21:33;16.45;;;9.38;;
69334;SDS011;56477;52.742;15.242;2022-10-17T16:24:01;15.13;;;9.07;;
69334;SDS011;56477;52.742;15.242;2022-10-17T16:26:28;14.75;;;9.15;;
69334;SDS011;56477;52.742;15.242;2022-10-17T16:28:54;18.15;;;9.40;;
69334;SDS011;56477;52.742;15.242;2022-10-17T16:31:24;15.23;;;9.40;;
69334;SDS011;56477;52.742;15.242;2022-10-17T16:33:53;17.13;;;9.70;;
69334;SDS011;56477;52.742;15.242;2022-10-17T16:36:20;14.52;;;9.68;;
69334;SDS011;56477;52.742;15.242;2022-10-17T16:38:46;16.45;;;9.70;;
69334;SDS011;56477;52.742;15.242;2022-10-17T16:41:35;18.02;;;9.75;;
69334;SDS011;56477;52.742;15.242;2022-10-17T16:44:03;13.93;;;9.73;;
69334;SDS011;56477;52.742;15.242;2022-10-17T16:46:31;17.20;;;10.38;;